Terminal Aerodrome Forecast
Issued by NWS

Home | Current Version | Previous Version | Graphics & Text | Print | Product List | Glossary On
Versions: 1 2 3 4 5 6 7 8 9 10 11 12 13 14 15 16 17 18
000
FTUS42 KMHX 231100
TAFISO
TAF
KISO 231121Z 2312/2412 00000KT P6SM VCSH OVC150
     FM231400 14007KT P6SM VCSH SCT025 BKN060
     FM232100 13010G16KT 4SM -SHRA BR OVC025
     FM240100 14012G18KT 5SM -TSRA OVC015CB
     FM240700 19012KT 3SM BR VCSH OVC010
      AMD LTD TO CLD VIS AND WIND=

USA.gov is the U.S. government's official web portal to all federal, state and local government web resources and services.